Time;durP1;ratioP1;P1;durP2;ratioP2;P2;SDS_P1;SDS_P2;PMS_P1;PMS_P2;Temp;Humidity;BMP_temperature;BMP_pressure;BME280_temperature;BME280_humidity;BME280_pressure;Samples;Min_cycle;Max_cycle;Signal;HPM_P1;HPM_P2
2021/10/10 00:01:42;;;;;;;17.10;15.30;;;5.60;99.90;;;;;;5054404;28;20120;-73
2021/10/10 00:04:08;;;;;;;17.05;15.25;;;5.60;99.90;;;;;;5054703;28;20482;-73
2021/10/10 00:06:35;;;;;;;17.17;14.82;;;5.50;99.90;;;;;;5048421;28;20057;-73
2021/10/10 00:09:01;;;;;;;16.13;14.43;;;5.50;99.90;;;;;;5055717;28;20102;-73
2021/10/10 00:11:27;;;;;;;17.40;15.60;;;5.50;99.90;;;;;;5051906;28;20041;-73
2021/10/10 00:13:52;;;;;;;17.92;14.68;;;5.50;99.90;;;;;;5052976;28;20099;-73
2021/10/10 00:16:18;;;;;;;16.75;14.73;;;5.50;99.90;;;;;;5050768;28;20040;-73
2021/10/10 00:18:44;;;;;;;16.17;14.30;;;5.40;99.90;;;;;;5052966;28;20033;-73
2021/10/10 00:21:10;;;;;;;16.92;15.10;;;5.40;99.90;;;;;;5051032;28;20483;-73
2021/10/10 00:23:36;;;;;;;18.67;14.80;;;5.40;99.90;;;;;;5051878;28;20115;-73
2021/10/10 00:26:02;;;;;;;18.15;14.93;;;5.40;99.90;;;;;;5050732;28;20044;-73
2021/10/10 00:28:28;;;;;;;19.88;16.73;;;5.30;99.90;;;;;;5052796;28;20056;-73
2021/10/10 00:30:56;;;;;;;18.63;16.48;;;5.30;99.90;;;;;;5043621;28;20033;-74
2021/10/10 00:33:22;;;;;;;20.48;17.05;;;5.30;99.90;;;;;;5045539;28;20072;-73
2021/10/10 00:35:47;;;;;;;20.55;16.55;;;5.20;99.90;;;;;;5049395;28;20064;-73
2021/10/10 00:38:13;;;;;;;19.75;17.48;;;5.20;99.90;;;;;;5052377;28;20041;-73
2021/10/10 00:40:39;;;;;;;19.20;16.27;;;5.20;99.90;;;;;;5051422;28;20068;-73
2021/10/10 00:43:04;;;;;;;17.40;15.25;;;5.20;99.90;;;;;;5050266;28;20521;-73
2021/10/10 00:45:30;;;;;;;15.77;14.07;;;5.00;99.90;;;;;;5051299;28;20040;-73
2021/10/10 00:47:55;;;;;;;16.48;13.70;;;5.00;99.90;;;;;;5050572;28;20044;-73
2021/10/10 00:50:21;;;;;;;15.88;14.20;;;5.00;99.90;;;;;;5049857;28;20045;-73
2021/10/10 00:52:49;;;;;;;16.98;14.30;;;5.00;99.90;;;;;;5034485;28;20037;-73
2021/10/10 00:55:15;;;;;;;15.80;13.55;;;5.00;99.90;;;;;;5047315;28;20037;-73
2021/10/10 00:57:45;;;;;;;13.77;11.85;;;4.90;99.90;;;;;;5042856;28;20085;-73
2021/10/10 01:00:12;;;;;;;12.00;10.77;;;4.90;99.90;;;;;;5040399;28;20463;-73
2021/10/10 01:02:43;;;;;;;11.82;10.65;;;4.90;99.90;;;;;;5050426;28;20056;-74
2021/10/10 01:05:10;;;;;;;11.95;10.63;;;4.80;99.90;;;;;;5050460;28;20079;-73
2021/10/10 01:07:35;;;;;;;10.73;9.68;;;4.80;99.90;;;;;;5047118;28;20099;-73
2021/10/10 01:10:02;;;;;;;13.02;10.48;;;4.80;99.90;;;;;;5048663;28;20087;-73
2021/10/10 01:12:27;;;;;;;16.35;11.48;;;4.80;99.90;;;;;;5051306;28;20056;-73
2021/10/10 01:14:53;;;;;;;13.98;12.57;;;4.80;99.90;;;;;;5038688;28;20390;-73
2021/10/10 01:17:19;;;;;;;13.98;11.85;;;4.70;99.90;;;;;;5028177;28;20126;-73
2021/10/10 01:19:47;;;;;;;12.48;11.20;;;4.70;99.90;;;;;;5045118;28;20033;-73
2021/10/10 01:22:12;;;;;;;14.05;12.68;;;4.70;99.90;;;;;;5044595;28;20493;-74
2021/10/10 01:24:38;;;;;;;16.40;14.75;;;4.70;99.90;;;;;;5048506;28;20033;-73
2021/10/10 01:27:04;;;;;;;17.80;16.10;;;4.70;99.90;;;;;;5048925;28;20052;-73
2021/10/10 01:29:29;;;;;;;18.55;16.08;;;4.60;99.90;;;;;;5050231;28;20048;-73
2021/10/10 01:31:55;;;;;;;19.70;16.85;;;4.60;99.90;;;;;;5049040;28;20769;-73
2021/10/10 01:34:20;;;;;;;17.50;15.50;;;4.60;99.90;;;;;;5032546;28;20123;-73
2021/10/10 01:36:46;;;;;;;19.52;16.75;;;4.60;99.90;;;;;;5038174;28;20103;-73
2021/10/10 01:39:11;;;;;;;20.60;18.40;;;4.60;99.90;;;;;;5032823;28;20041;-73
2021/10/10 01:41:38;;;;;;;21.42;18.10;;;4.50;99.90;;;;;;5060562;28;20110;-73
2021/10/10 01:44:04;;;;;;;21.75;18.85;;;4.50;99.90;;;;;;5048843;28;20051;-73
2021/10/10 01:46:29;;;;;;;20.88;18.67;;;4.50;99.90;;;;;;5049434;28;20037;-73
2021/10/10 01:48:55;;;;;;;18.15;16.35;;;4.40;99.90;;;;;;5030765;28;20239;-73
2021/10/10 01:51:20;;;;;;;19.77;17.48;;;4.50;99.90;;;;;;5062416;28;20123;-73
2021/10/10 01:53:46;;;;;;;30.15;23.55;;;4.40;99.90;;;;;;5045998;28;20033;-73
2021/10/10 01:56:12;;;;;;;19.48;16.60;;;4.40;99.90;;;;;;5046290;28;20169;-73
2021/10/10 01:58:37;;;;;;;18.13;16.13;;;4.40;99.90;;;;;;5047934;28;20055;-73
2021/10/10 02:01:03;;;;;;;17.27;14.95;;;4.40;99.90;;;;;;5050701;28;20041;-72
2021/10/10 02:03:28;;;;;;;18.02;15.95;;;4.40;99.90;;;;;;5032041;28;20041;-72
2021/10/10 02:05:54;;;;;;;19.90;15.82;;;4.40;99.90;;;;;;5051024;28;20486;-72
2021/10/10 02:08:20;;;;;;;16.75;14.75;;;4.40;99.90;;;;;;5069414;28;20088;-72
2021/10/10 02:10:46;;;;;;;15.60;14.07;;;4.40;99.90;;;;;;5053141;28;20052;-72
2021/10/10 02:13:12;;;;;;;14.90;13.25;;;4.40;99.90;;;;;;5073787;28;20052;-73
2021/10/10 02:15:40;;;;;;;14.68;12.98;;;4.40;99.90;;;;;;5061420;28;20046;-73
2021/10/10 02:18:06;;;;;;;18.48;15.40;;;4.40;99.90;;;;;;5070050;28;20055;-72
2021/10/10 02:20:32;;;;;;;26.73;18.67;;;4.40;99.90;;;;;;5046705;28;20032;-73
2021/10/10 02:22:58;;;;;;;19.95;17.30;;;4.40;99.90;;;;;;5085002;28;20113;-72
2021/10/10 02:25:23;;;;;;;28.20;20.75;;;4.40;99.90;;;;;;5069646;28;20044;-72
2021/10/10 02:27:49;;;;;;;24.15;18.27;;;4.30;99.90;;;;;;5072274;28;20382;-73
2021/10/10 02:30:15;;;;;;;18.92;14.63;;;4.30;99.90;;;;;;5052004;28;20474;-72
2021/10/10 02:32:40;;;;;;;16.55;14.02;;;4.30;99.90;;;;;;5069039;28;20033;-73
2021/10/10 02:35:06;;;;;;;19.55;14.77;;;4.40;99.90;;;;;;5038745;28;20049;-72
2021/10/10 02:37:32;;;;;;;18.02;14.13;;;4.30;99.90;;;;;;5052102;28;20075;-73
2021/10/10 02:39:58;;;;;;;16.67;14.27;;;4.30;99.90;;;;;;5050720;28;20352;-73
2021/10/10 02:42:23;;;;;;;14.30;12.60;;;4.30;99.90;;;;;;5056565;28;20039;-73
2021/10/10 02:44:49;;;;;;;18.55;13.77;;;4.30;99.90;;;;;;5084305;28;20115;-73
2021/10/10 02:47:15;;;;;;;16.00;14.30;;;4.30;99.90;;;;;;5069694;28;20091;-73
2021/10/10 02:49:41;;;;;;;16.02;13.60;;;4.20;99.90;;;;;;5050486;28;20051;-73
2021/10/10 02:52:07;;;;;;;15.07;13.15;;;4.30;99.90;;;;;;5050261;28;20040;-72
2021/10/10 02:54:33;;;;;;;16.23;14.52;;;4.20;99.90;;;;;;5053264;28;20512;-73
2021/10/10 02:56:58;;;;;;;15.40;13.68;;;4.20;99.90;;;;;;5052609;28;20035;-73
2021/10/10 02:59:24;;;;;;;16.63;14.75;;;4.20;99.90;;;;;;5052350;28;20622;-73
2021/10/10 03:01:49;;;;;;;16.20;14.07;;;4.20;99.90;;;;;;5053093;28;20089;-73
2021/10/10 03:04:15;;;;;;;17.75;15.35;;;4.20;99.90;;;;;;5065920;28;20037;-72
2021/10/10 03:06:41;;;;;;;16.38;14.07;;;4.20;99.90;;;;;;5076221;28;20053;-73
2021/10/10 03:09:06;;;;;;;29.35;21.15;;;4.20;99.90;;;;;;5067606;28;20404;-67
2021/10/10 03:11:32;;;;;;;22.58;18.55;;;4.20;99.90;;;;;;5079531;28;20040;-67
2021/10/10 03:13:57;;;;;;;17.70;15.68;;;4.20;99.90;;;;;;5060943;28;20040;-67
2021/10/10 03:16:23;;;;;;;16.60;14.88;;;4.20;99.90;;;;;;5073293;28;20032;-67
2021/10/10 03:18:48;;;;;;;16.25;14.55;;;4.20;99.90;;;;;;5060639;28;20119;-67
2021/10/10 03:21:14;;;;;;;22.17;19.75;;;4.10;99.90;;;;;;5081511;28;20178;-67
2021/10/10 03:23:40;;;;;;;17.67;15.63;;;4.10;99.90;;;;;;5070561;28;20048;-67
2021/10/10 03:26:05;;;;;;;22.58;18.25;;;4.00;99.90;;;;;;5058862;28;20056;-67
2021/10/10 03:28:31;;;;;;;18.00;16.10;;;4.00;99.90;;;;;;5050020;28;20044;-67
2021/10/10 03:30:57;;;;;;;17.60;15.77;;;4.00;99.90;;;;;;5067015;28;20055;-67
2021/10/10 03:33:23;;;;;;;16.33;13.90;;;3.90;99.90;;;;;;5078219;28;20043;-67
2021/10/10 03:35:49;;;;;;;14.48;12.10;;;3.90;99.90;;;;;;5057879;28;20043;-67
2021/10/10 03:38:14;;;;;;;13.93;12.45;;;3.90;99.90;;;;;;5078700;28;20393;-67
2021/10/10 03:40:40;;;;;;;14.90;13.40;;;3.80;99.90;;;;;;5079000;28;20576;-67
2021/10/10 03:43:05;;;;;;;14.40;12.93;;;3.80;99.90;;;;;;5056811;28;20036;-67
2021/10/10 03:45:31;;;;;;;28.58;22.60;;;3.80;99.90;;;;;;5072056;28;20697;-67
2021/10/10 03:47:56;;;;;;;15.75;14.15;;;3.80;99.90;;;;;;5071126;28;20193;-67
2021/10/10 03:50:22;;;;;;;30.90;22.45;;;3.80;99.90;;;;;;5039028;28;20646;-68
2021/10/10 03:52:47;;;;;;;34.72;28.63;;;3.70;99.90;;;;;;5069118;28;20036;-68
2021/10/10 03:55:27;;;;;;;17.00;15.07;;;3.70;99.90;;;;;;5072724;28;20043;-67
2021/10/10 03:57:54;;;;;;;18.60;15.50;;;3.70;99.90;;;;;;5054612;28;20036;-67
2021/10/10 04:00:19;;;;;;;17.13;13.70;;;3.70;99.90;;;;;;5054240;28;20462;-67
2021/10/10 04:02:45;;;;;;;16.77;15.18;;;3.70;99.90;;;;;;5073518;28;20050;-67
2021/10/10 04:05:36;;;;;;;16.98;14.93;;;3.80;99.90;;;;;;5052362;28;20728;-67
2021/10/10 04:08:02;;;;;;;15.95;13.90;;;3.70;99.90;;;;;;5057352;28;20052;-67
2021/10/10 04:10:28;;;;;;;17.75;15.07;;;3.70;99.90;;;;;;5074131;28;20048;-67
2021/10/10 04:12:54;;;;;;;17.33;15.63;;;3.70;99.90;;;;;;5074035;28;20123;-67
2021/10/10 04:15:20;;;;;;;17.20;15.38;;;3.70;99.90;;;;;;5076672;28;20430;-67
2021/10/10 04:17:46;;;;;;;18.25;16.08;;;3.60;99.90;;;;;;5065625;28;20433;-67
2021/10/10 04:20:14;;;;;;;18.10;15.65;;;3.60;99.90;;;;;;5061743;28;20891;-67
2021/10/10 04:22:40;;;;;;;17.27;15.48;;;3.60;99.90;;;;;;5073858;28;20046;-67
2021/10/10 04:25:08;;;;;;;18.65;14.98;;;3.60;99.90;;;;;;5081097;28;20094;-67
2021/10/10 04:27:35;;;;;;;18.00;15.55;;;3.70;99.90;;;;;;5077696;28;20470;-67
2021/10/10 04:30:02;;;;;;;17.80;15.43;;;3.60;99.90;;;;;;5050970;28;20048;-67
2021/10/10 04:32:27;;;;;;;21.02;16.55;;;3.60;99.90;;;;;;5071114;28;20048;-67
2021/10/10 04:34:53;;;;;;;17.90;16.00;;;3.60;99.90;;;;;;5072550;28;20470;-67
2021/10/10 04:37:18;;;;;;;16.98;14.77;;;3.50;99.90;;;;;;5074527;28;20036;-67
2021/10/10 04:39:44;;;;;;;16.77;14.10;;;3.60;99.90;;;;;;5058179;28;20479;-67
2021/10/10 04:42:09;;;;;;;16.30;14.55;;;3.60;99.90;;;;;;5056755;28;20100;-67
2021/10/10 04:44:36;;;;;;;14.93;13.32;;;3.50;99.90;;;;;;5039423;28;20477;-67
2021/10/10 04:47:05;;;;;;;17.13;14.43;;;3.50;99.90;;;;;;5053856;28;20075;-67
2021/10/10 04:49:32;;;;;;;18.48;14.45;;;3.50;99.90;;;;;;5072380;28;20044;-67
2021/10/10 04:51:57;;;;;;;15.15;13.55;;;3.50;99.90;;;;;;5074981;28;20053;-67
2021/10/10 04:54:23;;;;;;;17.30;15.50;;;3.50;99.90;;;;;;5054290;28;20059;-67
2021/10/10 04:56:48;;;;;;;16.20;14.40;;;3.50;99.90;;;;;;5054108;28;20040;-67
2021/10/10 04:59:14;;;;;;;15.30;13.63;;;3.50;99.90;;;;;;5053175;28;20048;-67
2021/10/10 05:01:39;;;;;;;15.48;13.98;;;3.50;99.90;;;;;;5076157;28;20381;-67
2021/10/10 05:04:05;;;;;;;18.55;15.82;;;3.50;99.90;;;;;;5054123;28;20710;-67
2021/10/10 05:06:30;;;;;;;16.50;14.70;;;3.40;99.90;;;;;;5057713;28;20098;-67
2021/10/10 05:08:56;;;;;;;15.68;13.57;;;3.30;99.90;;;;;;5061839;28;20036;-67
2021/10/10 05:11:21;;;;;;;16.23;13.90;;;3.30;99.90;;;;;;5053828;28;20070;-67
2021/10/10 05:13:47;;;;;;;16.08;14.40;;;3.30;99.90;;;;;;5057867;28;20037;-67
2021/10/10 05:16:13;;;;;;;16.52;14.82;;;3.30;99.90;;;;;;5053810;28;20044;-67
2021/10/10 05:18:38;;;;;;;16.73;15.05;;;3.30;99.90;;;;;;5070802;28;20028;-67
2021/10/10 05:21:04;;;;;;;16.55;13.88;;;3.30;99.90;;;;;;5073991;28;20072;-67
2021/10/10 05:23:29;;;;;;;16.55;14.75;;;3.30;99.90;;;;;;5077606;28;20032;-67
2021/10/10 05:25:55;;;;;;;18.30;14.82;;;3.30;99.90;;;;;;5058084;28;20805;-67
2021/10/10 05:28:21;;;;;;;17.13;15.30;;;3.40;99.90;;;;;;5073279;28;20056;-67
2021/10/10 05:30:47;;;;;;;16.70;14.90;;;3.30;99.90;;;;;;5052195;28;20044;-67
2021/10/10 05:33:12;;;;;;;16.75;15.02;;;3.40;99.90;;;;;;5071957;28;20041;-67
2021/10/10 05:35:38;;;;;;;17.05;14.45;;;3.40;99.90;;;;;;5054294;28;20398;-67
2021/10/10 05:38:04;;;;;;;17.05;15.32;;;3.40;99.90;;;;;;5075067;28;20028;-67
2021/10/10 05:40:29;;;;;;;18.33;16.05;;;3.40;99.90;;;;;;5073735;28;20040;-67
2021/10/10 05:42:55;;;;;;;17.55;15.65;;;3.40;99.90;;;;;;5035989;28;20383;-67
2021/10/10 05:45:20;;;;;;;16.15;14.27;;;3.40;99.90;;;;;;5072159;28;20067;-67
2021/10/10 05:47:46;;;;;;;17.25;15.38;;;3.40;99.90;;;;;;5071236;28;20048;-67
2021/10/10 05:50:12;;;;;;;18.25;15.77;;;3.40;99.90;;;;;;5069892;28;20371;-67
2021/10/10 05:52:37;;;;;;;18.67;16.10;;;3.50;99.90;;;;;;5074386;28;20485;-67
2021/10/10 05:55:07;;;;;;;19.73;15.15;;;3.40;99.90;;;;;;5071324;28;20105;-67
2021/10/10 05:57:43;;;;;;;17.45;15.50;;;3.50;99.90;;;;;;5062256;28;20078;-67
2021/10/10 06:00:10;;;;;;;16.88;15.07;;;3.40;99.90;;;;;;5065652;28;20093;-67
2021/10/10 06:02:36;;;;;;;17.20;14.15;;;3.40;99.90;;;;;;5071234;28;20090;-67
2021/10/10 06:05:01;;;;;;;16.85;15.10;;;3.50;99.90;;;;;;5047256;28;20519;-67
2021/10/10 06:07:27;;;;;;;17.70;15.48;;;3.50;99.90;;;;;;5068531;28;20084;-67
2021/10/10 06:09:54;;;;;;;18.00;15.45;;;3.50;99.90;;;;;;5046569;28;20125;-67
2021/10/10 06:12:20;;;;;;;20.27;16.95;;;3.50;99.90;;;;;;5068987;28;20465;-69
2021/10/10 06:14:49;;;;;;;20.80;16.63;;;3.50;99.90;;;;;;5033593;28;20456;-68
2021/10/10 06:17:17;;;;;;;23.77;18.23;;;3.60;99.90;;;;;;5062709;28;20041;-68
2021/10/10 06:19:42;;;;;;;20.40;15.43;;;3.60;99.90;;;;;;5049552;28;20032;-68
2021/10/10 06:22:08;;;;;;;16.85;15.10;;;3.70;99.90;;;;;;5073576;23;20105;-62
2021/10/10 06:24:33;;;;;;;16.40;14.32;;;3.70;99.90;;;;;;5079613;28;20373;-61
2021/10/10 06:26:59;;;;;;;16.35;14.65;;;3.80;99.90;;;;;;5085078;28;20096;-62
2021/10/10 06:29:25;;;;;;;16.70;14.23;;;3.90;99.90;;;;;;5087872;28;20084;-61
2021/10/10 06:31:50;;;;;;;13.73;12.32;;;3.90;99.90;;;;;;5087033;28;20780;-62
2021/10/10 06:34:16;;;;;;;15.35;13.68;;;4.00;99.90;;;;;;5088694;28;20044;-62
2021/10/10 06:36:41;;;;;;;14.20;12.27;;;4.10;99.90;;;;;;5089214;28;20574;-62
2021/10/10 06:39:07;;;;;;;16.25;12.65;;;4.10;99.90;;;;;;5081027;28;20039;-62
2021/10/10 06:41:32;;;;;;;16.05;13.50;;;4.00;99.90;;;;;;5090109;28;20036;-62
2021/10/10 06:43:58;;;;;;;14.55;13.10;;;4.00;99.90;;;;;;5088115;28;20111;-62
2021/10/10 06:46:25;;;;;;;13.45;12.23;;;4.10;99.90;;;;;;5087808;28;20638;-61
2021/10/10 06:48:50;;;;;;;14.52;12.13;;;4.40;99.90;;;;;;5090881;28;20148;-62
2021/10/10 06:51:16;;;;;;;14.90;13.30;;;4.90;99.90;;;;;;5072069;28;20135;-61
2021/10/10 06:53:42;;;;;;;18.40;15.65;;;5.50;99.90;;;;;;5088735;28;20123;-62
2021/10/10 06:56:07;;;;;;;19.02;15.77;;;6.00;99.90;;;;;;5088544;28;20040;-62
2021/10/10 06:58:33;;;;;;;18.40;15.68;;;6.50;99.90;;;;;;5088847;28;20097;-62
2021/10/10 07:00:59;;;;;;;19.20;16.15;;;6.70;99.90;;;;;;5086027;28;20400;-62
2021/10/10 07:03:25;;;;;;;19.38;17.13;;;6.90;99.90;;;;;;5090003;28;20044;-62
2021/10/10 07:05:50;;;;;;;18.50;16.33;;;7.10;99.90;;;;;;5088221;28;20500;-62
2021/10/10 07:08:16;;;;;;;19.73;16.45;;;7.40;99.90;;;;;;5088993;28;20113;-62
2021/10/10 07:10:42;;;;;;;20.67;16.90;;;7.70;99.90;;;;;;5071842;28;20388;-62
2021/10/10 07:13:07;;;;;;;17.23;15.52;;;7.70;99.90;;;;;;5087497;28;20071;-62
2021/10/10 07:15:33;;;;;;;19.90;16.80;;;7.60;99.90;;;;;;5081942;28;20119;-63
2021/10/10 07:18:02;;;;;;;25.65;16.00;;;7.60;99.90;;;;;;5081365;28;20480;-62
2021/10/10 07:20:44;;;;;;;17.65;15.55;;;7.50;99.90;;;;;;5091274;28;20032;-62
2021/10/10 07:25:39;;;;;;;18.13;16.23;;;7.40;99.90;;;;;;5090329;28;20039;-63
2021/10/10 07:28:04;;;;;;;18.95;16.42;;;7.40;99.90;;;;;;5090091;28;20042;-60
2021/10/10 07:30:30;;;;;;;17.45;15.70;;;7.50;99.90;;;;;;5092683;28;20059;-60
2021/10/10 07:32:55;;;;;;;18.02;16.23;;;7.50;99.90;;;;;;5092587;28;20048;-60
2021/10/10 07:35:21;;;;;;;28.85;16.95;;;7.50;99.90;;;;;;5093063;28;20048;-60
2021/10/10 07:37:46;;;;;;;19.75;15.52;;;7.50;99.90;;;;;;5093051;28;20036;-60
2021/10/10 07:40:13;;;;;;;20.05;15.23;;;7.50;99.90;;;;;;5093929;28;20643;-60
2021/10/10 07:42:38;;;;;;;18.95;16.73;;;7.60;99.90;;;;;;5092335;28;20036;-60
2021/10/10 07:45:07;;;;;;;18.80;16.80;;;7.60;99.90;;;;;;5089418;28;20497;-60
2021/10/10 07:50:09;;;;;;;20.15;17.02;;;7.70;99.90;;;;;;5085070;28;20048;-60
2021/10/10 07:52:34;;;;;;;18.25;16.42;;;7.80;99.90;;;;;;5081932;28;20430;-60
2021/10/10 07:55:00;;;;;;;18.85;16.92;;;7.80;99.90;;;;;;5091239;28;20127;-60
2021/10/10 07:57:28;;;;;;;19.92;16.88;;;7.90;99.90;;;;;;5091709;28;20120;-61
2021/10/10 07:59:53;;;;;;;19.60;17.48;;;7.90;99.90;;;;;;5093786;28;20039;-60
2021/10/10 08:02:20;;;;;;;19.58;17.48;;;8.10;99.90;;;;;;5091866;28;20028;-60
2021/10/10 08:04:45;;;;;;;18.70;16.77;;;8.10;99.90;;;;;;5090599;28;20036;-60
2021/10/10 08:07:11;;;;;;;21.85;17.50;;;8.30;99.90;;;;;;5092700;28;20089;-60
2021/10/10 08:09:36;;;;;;;23.10;18.90;;;8.40;99.90;;;;;;5092353;28;20047;-60
2021/10/10 08:12:03;;;;;;;21.60;17.88;;;8.50;99.90;;;;;;5090647;28;20048;-60
2021/10/10 08:14:29;;;;;;;23.33;17.88;;;8.60;99.90;;;;;;5091443;28;20040;-60
2021/10/10 08:16:54;;;;;;;26.00;18.95;;;8.60;99.90;;;;;;5088036;28;20524;-60
2021/10/10 08:19:21;;;;;;;20.85;18.67;;;8.70;99.90;;;;;;5092815;28;20738;-60
2021/10/10 08:21:48;;;;;;;23.23;19.05;;;8.70;99.90;;;;;;5096497;28;20052;-60
2021/10/10 08:24:16;;;;;;;20.27;18.02;;;8.70;99.90;;;;;;5106083;28;20090;-61
2021/10/10 08:26:42;;;;;;;20.67;17.42;;;8.70;99.90;;;;;;5101799;28;20032;-60
2021/10/10 08:29:07;;;;;;;21.10;17.98;;;8.80;99.90;;;;;;5093870;28;20151;-60
2021/10/10 08:31:33;;;;;;;20.15;18.15;;;8.90;99.90;;;;;;5093064;28;20089;-60
2021/10/10 08:33:58;;;;;;;22.48;17.77;;;9.00;99.90;;;;;;5090798;28;20095;-60
2021/10/10 08:36:24;;;;;;;21.52;17.75;;;9.20;99.90;;;;;;5091979;28;20043;-60
2021/10/10 08:38:49;;;;;;;20.80;18.50;;;9.40;99.90;;;;;;5093353;28;20472;-60
2021/10/10 08:41:21;;;;;;;25.98;19.75;;;9.60;99.90;;;;;;5093515;28;20044;-60
2021/10/10 08:43:48;;;;;;;20.60;18.07;;;9.70;99.90;;;;;;5080297;28;20477;-61
2021/10/10 08:46:22;;;;;;;20.80;18.52;;;10.00;99.90;;;;;;5075576;28;20281;-61
2021/10/10 08:48:48;;;;;;;23.77;18.65;;;10.10;99.90;;;;;;5092900;28;20071;-60
2021/10/10 08:51:14;;;;;;;23.33;19.55;;;10.20;99.90;;;;;;5093474;28;20059;-60
2021/10/10 08:53:39;;;;;;;22.35;19.95;;;10.30;99.90;;;;;;5092785;28;20473;-61
2021/10/10 08:56:05;;;;;;;22.85;19.67;;;10.40;99.90;;;;;;5093247;28;20042;-60
2021/10/10 08:58:36;;;;;;;25.25;21.20;;;10.50;99.90;;;;;;5092502;28;20036;-60
2021/10/10 09:01:06;;;;;;;25.80;21.77;;;10.60;99.90;;;;;;5087601;28;20072;-60
2021/10/10 09:03:31;;;;;;;24.50;21.95;;;10.60;99.90;;;;;;5076578;28;20085;-60
2021/10/10 09:05:57;;;;;;;27.10;21.30;;;10.70;99.90;;;;;;5090034;28;20056;-59
2021/10/10 09:08:23;;;;;;;26.25;22.65;;;10.70;99.90;;;;;;5091310;28;20086;-60
2021/10/10 09:10:59;;;;;;;25.98;22.20;;;10.80;99.90;;;;;;5092795;28;20043;-61
2021/10/10 09:13:33;;;;;;;25.85;22.73;;;10.80;99.90;;;;;;5092179;28;20122;-61
2021/10/10 09:15:58;;;;;;;22.65;20.20;;;10.80;99.90;;;;;;5091242;28;20032;-60
2021/10/10 09:18:32;;;;;;;24.42;21.92;;;10.80;99.90;;;;;;5092631;28;20405;-61
2021/10/10 09:21:19;;;;;;;24.63;21.77;;;10.80;99.90;;;;;;5091911;28;20067;-61
2021/10/10 09:23:47;;;;;;;28.00;22.05;;;10.80;99.90;;;;;;5085426;28;20127;-61
2021/10/10 09:26:13;;;;;;;25.02;22.38;;;10.80;99.90;;;;;;5090456;28;20100;-61
2021/10/10 09:28:39;;;;;;;25.88;22.80;;;10.80;99.90;;;;;;5091440;28;20046;-62
2021/10/10 09:31:07;;;;;;;24.95;22.13;;;10.80;99.90;;;;;;5090810;28;20036;-61
2021/10/10 09:33:49;;;;;;;26.05;23.25;;;10.80;99.90;;;;;;5090983;28;20071;-61
2021/10/10 09:36:19;;;;;;;27.70;23.58;;;10.70;99.90;;;;;;5089275;28;20096;-61
2021/10/10 09:38:51;;;;;;;23.05;20.67;;;10.80;99.90;;;;;;5090338;28;20381;-62
2021/10/10 09:41:32;;;;;;;25.40;22.05;;;10.70;99.90;;;;;;5090593;28;20043;-61
2021/10/10 09:46:40;;;;;;;26.88;22.23;;;10.80;99.90;;;;;;5086963;28;20055;-61
2021/10/10 09:49:23;;;;;;;25.20;22.25;;;10.90;99.90;;;;;;5090125;28;20037;-61
2021/10/10 09:51:49;;;;;;;24.70;22.13;;;11.00;99.90;;;;;;5089101;28;20086;-61
2021/10/10 09:54:15;;;;;;;25.35;22.58;;;11.10;99.90;;;;;;5086560;28;20044;-61
2021/10/10 09:57:02;;;;;;;23.50;21.00;;;11.20;99.90;;;;;;5090663;28;20407;-61
2021/10/10 09:59:28;;;;;;;26.08;23.20;;;11.30;99.90;;;;;;5087899;28;20028;-61
2021/10/10 10:01:53;;;;;;;24.90;21.88;;;11.30;99.90;;;;;;5091328;28;20087;-61
2021/10/10 10:04:19;;;;;;;27.35;23.95;;;11.40;99.90;;;;;;5091948;28;20044;-61
2021/10/10 10:06:44;;;;;;;29.30;21.55;;;11.50;99.90;;;;;;5091463;28;20043;-61
2021/10/10 10:09:12;;;;;;;25.83;23.15;;;11.60;99.90;;;;;;5091524;28;20056;-61
2021/10/10 10:11:42;;;;;;;25.25;22.52;;;11.60;99.90;;;;;;5090820;28;20085;-61
2021/10/10 10:14:16;;;;;;;27.17;23.38;;;11.70;99.90;;;;;;5087571;28;20044;-61
2021/10/10 10:16:47;;;;;;;25.30;21.17;;;11.80;99.90;;;;;;5083740;28;20062;-62
2021/10/10 10:19:19;;;;;;;28.15;22.98;;;11.90;99.90;;;;;;5090096;28;20433;-61
2021/10/10 10:21:47;;;;;;;25.17;22.50;;;12.00;99.90;;;;;;5078905;28;20048;-61
2021/10/10 10:24:14;;;;;;;27.08;23.20;;;12.00;99.90;;;;;;5089616;28;20040;-61
2021/10/10 10:26:41;;;;;;;23.60;20.70;;;12.10;99.90;;;;;;5088362;28;20043;-62
2021/10/10 10:29:18;;;;;;;24.02;19.85;;;12.20;99.90;;;;;;5088815;28;20044;-62
2021/10/10 10:31:45;;;;;;;25.40;22.73;;;12.30;99.90;;;;;;5071414;28;20044;-62
2021/10/10 10:34:28;;;;;;;24.35;21.42;;;12.40;99.90;;;;;;5085496;28;20123;-62
2021/10/10 10:37:00;;;;;;;27.30;24.15;;;12.50;99.90;;;;;;5086635;28;20032;-62
2021/10/10 10:39:43;;;;;;;28.33;21.70;;;12.60;99.90;;;;;;5072548;28;20441;-62
2021/10/10 10:42:09;;;;;;;25.88;22.92;;;12.70;99.90;;;;;;5087321;28;20036;-62
2021/10/10 10:44:40;;;;;;;27.30;22.75;;;12.70;99.90;;;;;;5082983;28;20127;-62
2021/10/10 10:47:17;;;;;;;26.02;22.27;;;12.80;99.90;;;;;;5087082;28;20043;-61
2021/10/10 10:49:56;;;;;;;28.25;24.00;;;12.90;99.90;;;;;;5082467;28;20051;-61
2021/10/10 10:52:25;;;;;;;27.38;24.42;;;12.90;99.90;;;;;;5087772;28;20044;-61
2021/10/10 10:55:16;;;;;;;28.83;23.17;;;12.90;99.90;;;;;;5085066;28;20045;-61
2021/10/10 10:57:46;;;;;;;29.73;23.27;;;13.00;99.90;;;;;;5086851;28;20050;-61
2021/10/10 11:00:49;;;;;;;25.70;22.92;;;13.10;99.90;;;;;;5083758;28;20047;-61
2021/10/10 11:03:22;;;;;;;27.20;23.63;;;13.10;99.90;;;;;;5079472;28;20104;-63
2021/10/10 11:05:53;;;;;;;26.20;21.70;;;13.30;99.90;;;;;;5087159;28;20074;-62
2021/10/10 11:08:22;;;;;;;28.20;22.47;;;13.40;99.90;;;;;;5083117;28;20096;-61
2021/10/10 11:11:00;;;;;;;27.55;23.15;;;13.40;99.90;;;;;;5080267;28;20669;-61
2021/10/10 11:13:29;;;;;;;27.42;22.60;;;13.50;99.90;;;;;;5089541;28;20431;-62
2021/10/10 11:15:57;;;;;;;25.45;22.70;;;13.50;99.90;;;;;;5083817;28;20040;-62
2021/10/10 11:18:26;;;;;;;28.58;22.83;;;13.60;99.90;;;;;;5088872;28;20047;-62
2021/10/10 11:20:53;;;;;;;26.77;23.48;;;13.70;99.90;;;;;;5081965;28;20040;-62
2021/10/10 11:23:20;;;;;;;31.33;22.85;;;13.80;99.90;;;;;;5088596;28;20714;-62
2021/10/10 11:25:49;;;;;;;25.90;22.60;;;13.90;99.90;;;;;;5074392;28;20062;-62
2021/10/10 11:28:18;;;;;;;27.35;22.55;;;14.00;99.90;;;;;;5088304;28;20393;-61
2021/10/10 11:30:44;;;;;;;31.63;24.00;;;14.10;99.90;;;;;;5088800;28;20397;-62
2021/10/10 11:33:10;;;;;;;27.92;23.70;;;14.10;99.90;;;;;;5088103;28;20036;-62
2021/10/10 11:35:41;;;;;;;28.05;22.95;;;14.20;99.90;;;;;;5088199;28;20040;-62
2021/10/10 11:38:09;;;;;;;30.15;24.17;;;14.30;99.90;;;;;;5083646;28;20044;-62
2021/10/10 11:40:36;;;;;;;26.83;23.10;;;14.30;99.90;;;;;;5087775;28;20043;-62
2021/10/10 11:43:02;;;;;;;26.92;23.52;;;14.40;99.90;;;;;;5090679;28;20422;-62
2021/10/10 11:45:28;;;;;;;28.67;25.40;;;14.50;99.90;;;;;;5088910;28;20047;-62
2021/10/10 11:47:54;;;;;;;29.58;24.25;;;14.60;99.90;;;;;;5072269;28;20048;-62
2021/10/10 11:50:20;;;;;;;29.98;26.13;;;14.60;99.90;;;;;;5088956;28;20119;-62
2021/10/10 11:53:01;;;;;;;30.77;25.27;;;14.60;99.90;;;;;;5088020;28;20161;-62
2021/10/10 11:55:43;;;;;;;30.23;25.63;;;14.70;99.90;;;;;;5090845;28;20350;-62
2021/10/10 11:58:09;;;;;;;30.60;25.88;;;14.80;99.90;;;;;;5090355;28;20040;-61
2021/10/10 12:00:36;;;;;;;32.53;26.45;;;14.90;99.90;;;;;;5070707;28;20033;-62
2021/10/10 12:03:10;;;;;;;34.85;26.80;;;14.90;99.90;;;;;;5070616;28;20041;-62
2021/10/10 12:05:54;;;;;;;29.88;24.80;;;14.90;99.90;;;;;;5072074;28;20098;-62
2021/10/10 12:08:22;;;;;;;30.00;24.92;;;14.90;99.90;;;;;;5078575;28;20035;-61
2021/10/10 12:10:49;;;;;;;32.78;26.77;;;15.00;99.90;;;;;;5092889;28;20055;-62
2021/10/10 12:13:17;;;;;;;30.58;24.58;;;15.10;99.90;;;;;;5092930;28;20119;-61
2021/10/10 12:15:43;;;;;;;33.58;26.73;;;15.10;99.90;;;;;;5094006;28;20044;-64
2021/10/10 12:18:16;;;;;;;32.10;26.23;;;15.10;99.90;;;;;;5093179;28;20063;-65
2021/10/10 12:20:42;;;;;;;31.80;27.02;;;15.10;99.90;;;;;;5094268;28;20697;-65
2021/10/10 12:23:11;;;;;;;31.58;25.27;;;15.10;99.90;;;;;;5094153;28;20087;-65
2021/10/10 12:25:43;;;;;;;33.53;26.77;;;15.10;99.90;;;;;;5092668;28;20047;-64
2021/10/10 12:28:13;;;;;;;30.83;25.55;;;15.20;99.90;;;;;;5092842;28;20036;-65
2021/10/10 12:30:58;;;;;;;30.63;25.52;;;15.20;99.90;;;;;;5092660;28;20123;-65
2021/10/10 12:33:38;;;;;;;35.70;27.20;;;15.40;99.90;;;;;;5092327;28;20569;-65
2021/10/10 12:36:17;;;;;;;31.52;26.33;;;15.40;99.90;;;;;;5092674;28;20039;-65
2021/10/10 12:38:46;;;;;;;35.42;26.90;;;15.50;99.90;;;;;;5090099;28;20032;-65
2021/10/10 12:41:21;;;;;;;34.25;27.48;;;15.60;99.90;;;;;;5092436;28;20094;-65
2021/10/10 12:43:56;;;;;;;34.70;27.30;;;15.50;99.90;;;;;;5092532;28;20048;-65